createdAt,value
2022-09-28T04:21:38.750Z,0.00
2022-09-28T04:35:14.165Z,0.00
2022-09-28T04:40:21.942Z,0.00
2022-09-28T04:46:33.007Z,0.00
2022-09-28T04:51:40.407Z,0.00
2022-09-28T04:59:36.572Z,4.00
2022-09-28T05:04:36.480Z,8.00
2022-09-28T05:09:38.404Z,20.00
2022-09-28T05:14:36.385Z,36.00
2022-09-28T05:22:43.452Z,76.00
2022-09-28T05:27:43.131Z,156.00
2022-09-28T05:32:43.185Z,192.00
2022-09-28T05:37:42.993Z,168.00
2022-09-28T05:42:42.810Z,160.00
2022-09-28T05:47:42.811Z,256.00
2022-09-28T05:52:42.775Z,364.00
2022-09-28T05:57:42.744Z,448.00
2022-09-28T06:02:42.594Z,580.00
2022-09-28T06:07:42.403Z,556.00
2022-09-28T06:12:45.415Z,508.00
2022-09-28T06:17:42.377Z,676.00
2022-09-28T06:22:42.330Z,584.00
2022-09-28T06:27:42.306Z,716.00
2022-09-28T06:32:43.374Z,800.00
2022-09-28T06:37:42.153Z,656.00
2022-09-28T06:42:42.036Z,824.00
2022-09-28T06:47:42.228Z,952.00
2022-09-28T06:53:59.726Z,1164.00
2022-09-28T06:58:59.802Z,1648.00
2022-09-28T07:03:59.821Z,2364.00
2022-09-28T07:09:15.478Z,2808.00
2022-09-28T07:14:00.794Z,2500.00
2022-09-28T07:18:59.572Z,2288.00
2022-09-28T07:26:07.202Z,1932.00
2022-09-28T07:31:04.445Z,1440.00
2022-09-28T07:36:04.520Z,2064.00
2022-09-28T07:41:04.405Z,1864.00
2022-09-28T07:46:04.212Z,1836.00
2022-09-28T07:51:03.946Z,2832.00
2022-09-28T07:56:04.191Z,3592.00
2022-09-28T08:01:04.150Z,4352.00
2022-09-28T08:06:14.620Z,4348.00
2022-09-28T08:11:03.919Z,3696.00
2022-09-28T08:16:07.037Z,5992.00
2022-09-28T08:21:03.709Z,4956.00
2022-09-28T08:26:03.663Z,4864.00
2022-09-28T08:31:03.493Z,4704.00
2022-09-28T08:36:04.156Z,5428.00
2022-09-28T08:41:03.511Z,4608.00
2022-09-28T09:00:32.693Z,10332.00
2022-09-28T09:05:32.202Z,8332.00
2022-09-28T09:15:38.476Z,4148.00
2022-09-28T09:20:38.506Z,5900.00
2022-09-28T09:25:38.699Z,13596.00
